createdAt,value
2018-09-05T00:00:17.632Z,66.40
2018-09-05T00:00:49.545Z,66.40
2018-09-05T00:01:21.517Z,66.40
2018-09-05T00:01:53.346Z,66.60
2018-09-05T00:02:25.293Z,66.30
2018-09-05T00:02:57.144Z,66.30
2018-09-05T00:03:29.005Z,66.30
2018-09-05T00:04:00.932Z,66.20
2018-09-05T00:04:32.794Z,66.30
2018-09-05T00:05:04.645Z,66.40
2018-09-05T00:05:36.495Z,66.30
2018-09-05T00:06:08.394Z,66.20
2018-09-05T00:06:40.323Z,66.20
2018-09-05T00:07:12.150Z,66.30
2018-09-05T00:07:43.997Z,66.20
2018-09-05T00:08:15.836Z,66.20
2018-09-05T00:08:47.828Z,66.20
2018-09-05T00:09:19.717Z,66.10
2018-09-05T00:09:51.581Z,66.10
2018-09-05T00:10:23.743Z,66.20
2018-09-05T00:10:55.638Z,66.40
2018-09-05T00:11:27.642Z,66.10
2018-09-05T00:11:59.493Z,65.90
2018-09-05T00:12:31.436Z,66.20
2018-09-05T00:13:03.245Z,66.20
2018-09-05T00:13:35.096Z,66.20
2018-09-05T00:14:06.919Z,65.90
2018-09-05T00:14:38.949Z,66.90
2018-09-05T00:15:10.765Z,66.30
2018-09-05T00:15:42.651Z,66.20
2018-09-05T00:16:14.513Z,66.20
2018-09-05T00:16:46.324Z,66.20
2018-09-05T00:17:18.266Z,66.10
2018-09-05T00:17:50.103Z,66.30
2018-09-05T00:18:21.962Z,66.20
2018-09-05T00:18:54.175Z,66.20
2018-09-05T00:19:26.064Z,66.10
2018-09-05T00:19:57.902Z,66.20
2018-09-05T00:20:29.776Z,66.20
2018-09-05T00:21:01.642Z,66.20
2018-09-05T00:21:33.575Z,66.20
2018-09-05T00:22:05.498Z,66.20
2018-09-05T00:22:37.459Z,66.20
2018-09-05T00:23:09.336Z,66.20
2018-09-05T00:23:41.184Z,66.20
2018-09-05T00:24:13.146Z,66.20
2018-09-05T00:24:45.154Z,66.10
2018-09-05T00:25:16.966Z,66.10
2018-09-05T00:25:48.841Z,66.00
2018-09-05T00:26:20.852Z,66.10
2018-09-05T00:26:52.894Z,65.90
2018-09-05T00:27:24.924Z,65.70
2018-09-05T00:27:56.805Z,66.10
2018-09-05T00:28:28.659Z,65.90
2018-09-05T00:29:00.584Z,66.10
2018-09-05T00:29:32.586Z,65.90
2018-09-05T00:30:04.643Z,66.10
2018-09-05T00:30:36.685Z,66.20
2018-09-05T00:31:08.525Z,66.20
2018-09-05T00:31:40.737Z,66.20
2018-09-05T00:32:12.647Z,66.20
2018-09-05T00:32:44.587Z,66.20
2018-09-05T00:33:16.627Z,67.00
2018-09-05T00:33:48.601Z,66.20
2018-09-05T00:34:20.559Z,66.20
2018-09-05T00:34:53.005Z,66.10
2018-09-05T00:35:24.871Z,66.20
2018-09-05T00:35:56.868Z,66.10
2018-09-05T00:36:28.855Z,66.00
2018-09-05T00:37:01.102Z,66.10
2018-09-05T00:37:33.055Z,66.10
2018-09-05T00:38:05.000Z,65.80
2018-09-05T00:38:36.994Z,65.90
2018-09-05T00:39:09.014Z,66.00
2018-09-05T00:39:41.036Z,65.70
2018-09-05T00:40:12.857Z,65.80
2018-09-05T00:40:44.725Z,65.90
2018-09-05T00:41:16.865Z,66.00
2018-09-05T00:41:48.888Z,66.00
2018-09-05T00:42:21.006Z,66.10
2018-09-05T00:42:52.934Z,66.10
2018-09-05T00:43:24.862Z,66.10
2018-09-05T00:43:56.678Z,66.00
2018-09-05T00:44:28.784Z,66.00
2018-09-05T00:45:00.667Z,66.10
2018-09-05T00:45:32.588Z,66.10
2018-09-05T00:46:04.564Z,66.00
2018-09-05T00:46:36.496Z,65.90
2018-09-05T00:47:08.464Z,65.90
2018-09-05T00:47:40.474Z,65.90
2018-09-05T00:48:12.524Z,65.80
2018-09-05T00:48:44.525Z,65.90
2018-09-05T00:49:16.361Z,65.90
2018-09-05T00:49:48.315Z,65.90
2018-09-05T00:50:20.277Z,65.90
2018-09-05T00:50:52.188Z,65.90
2018-09-05T00:51:24.169Z,65.90
2018-09-05T00:51:56.076Z,65.90
2018-09-05T00:52:28.058Z,65.80
2018-09-05T00:53:00.053Z,65.90
2018-09-05T00:53:31.936Z,65.80
2018-09-05T00:54:03.819Z,65.90
2018-09-05T00:54:35.810Z,65.90
2018-09-05T00:55:07.790Z,65.80
2018-09-05T00:55:39.807Z,65.70
2018-09-05T00:56:11.748Z,65.90
2018-09-05T00:56:43.706Z,65.70
2018-09-05T00:57:15.616Z,66.20
2018-09-05T00:57:47.480Z,66.00
2018-09-05T00:58:19.359Z,65.80
2018-09-05T00:58:51.428Z,65.80
2018-09-05T00:59:23.305Z,65.80
2018-09-05T00:59:55.106Z,65.80
2018-09-05T01:00:26.986Z,65.60
2018-09-05T01:00:58.830Z,65.80
2018-09-05T01:01:30.805Z,65.70
2018-09-05T01:02:02.787Z,65.60
2018-09-05T01:02:34.773Z,65.60
2018-09-05T01:03:06.815Z,66.40
2018-09-05T01:03:38.715Z,65.70
2018-09-05T01:04:10.720Z,65.60
2018-09-05T01:04:42.607Z,65.80
2018-09-05T01:05:14.610Z,65.70
2018-09-05T01:05:46.436Z,65.70
2018-09-05T01:06:18.418Z,65.70
2018-09-05T01:06:50.265Z,65.70
2018-09-05T01:07:22.480Z,65.60
2018-09-05T01:07:54.440Z,65.70
2018-09-05T01:08:26.267Z,65.70
2018-09-05T01:08:58.379Z,65.70
2018-09-05T01:09:30.253Z,65.70
2018-09-05T01:10:02.202Z,65.50
2018-09-05T01:10:34.270Z,65.60
2018-09-05T01:11:06.159Z,65.70
2018-09-05T01:11:38.017Z,65.60
2018-09-05T01:12:10.078Z,65.50
2018-09-05T01:12:41.956Z,65.60
2018-09-05T01:13:13.769Z,65.50
2018-09-05T01:13:45.606Z,65.50
2018-09-05T01:14:17.687Z,65.40
2018-09-05T01:14:49.559Z,65.50
2018-09-05T01:15:21.434Z,65.40
2018-09-05T01:15:53.377Z,65.30
2018-09-05T01:16:25.316Z,65.40
2018-09-05T01:16:57.187Z,65.40
2018-09-05T01:17:29.272Z,65.60
2018-09-05T01:18:01.200Z,65.60
2018-09-05T01:18:33.026Z,65.40
2018-09-05T01:19:05.036Z,65.40
2018-09-05T01:19:36.848Z,65.50
2018-09-05T01:20:08.737Z,65.50
2018-09-05T01:20:40.721Z,65.50
2018-09-05T01:21:12.623Z,65.60
2018-09-05T01:21:44.432Z,65.70
2018-09-05T01:22:16.298Z,65.60
2018-09-05T01:22:48.137Z,65.60
2018-09-05T01:23:20.196Z,65.50
2018-09-05T01:23:52.110Z,65.60
2018-09-05T01:24:24.166Z,65.40
2018-09-05T01:24:56.246Z,65.50
2018-09-05T01:25:28.118Z,65.30
2018-09-05T01:26:00.138Z,65.40
2018-09-05T01:26:32.156Z,65.40
2018-09-05T01:27:04.088Z,65.30
2018-09-05T01:27:35.936Z,65.50
2018-09-05T01:28:08.131Z,66.10
2018-09-05T01:28:40.172Z,64.80
2018-09-05T01:29:12.137Z,65.30
2018-09-05T01:29:44.157Z,65.50
2018-09-05T01:30:15.982Z,65.50
2018-09-05T01:30:47.817Z,65.50
2018-09-05T01:31:19.714Z,65.50
2018-09-05T01:31:51.869Z,65.50
2018-09-05T01:32:23.951Z,65.40
2018-09-05T01:32:55.790Z,65.30
2018-09-05T01:33:27.788Z,65.40
2018-09-05T01:33:59.748Z,65.40
2018-09-05T01:34:31.568Z,65.40
2018-09-05T01:35:03.433Z,65.40
2018-09-05T01:35:35.342Z,65.50
2018-09-05T01:36:07.147Z,65.50
2018-09-05T01:36:39.028Z,65.30
2018-09-05T01:37:10.950Z,65.40
2018-09-05T01:37:42.907Z,65.40
2018-09-05T01:38:14.953Z,65.40
2018-09-05T01:38:46.816Z,65.30
2018-09-05T01:39:18.667Z,65.20
2018-09-05T01:39:50.646Z,65.30
2018-09-05T01:40:22.553Z,65.20
2018-09-05T01:40:54.709Z,65.40
2018-09-05T01:41:26.546Z,65.20
2018-09-05T01:41:58.397Z,65.30
2018-09-05T01:42:30.286Z,65.40
2018-09-05T01:43:02.290Z,65.40
2018-09-05T01:43:34.355Z,65.30
2018-09-05T01:44:06.317Z,65.40
2018-09-05T01:44:38.165Z,65.40
2018-09-05T01:45:10.126Z,65.30
2018-09-05T01:45:42.157Z,65.40
2018-09-05T01:46:14.016Z,65.40
2018-09-05T01:46:45.822Z,65.30
2018-09-05T01:47:17.757Z,65.40
2018-09-05T01:47:49.564Z,65.40
2018-09-05T01:48:21.445Z,65.40
2018-09-05T01:48:53.350Z,65.20
2018-09-05T01:49:25.214Z,65.30
2018-09-05T01:49:57.119Z,65.30
2018-09-05T01:50:28.925Z,65.30
2018-09-05T01:51:00.825Z,65.30
2018-09-05T01:51:32.766Z,65.40
2018-09-05T01:52:04.637Z,66.00
2018-09-05T01:52:36.475Z,65.30
2018-09-05T01:53:08.611Z,65.20
2018-09-05T01:53:40.524Z,65.20
2018-09-05T01:54:12.644Z,65.20
2018-09-05T01:54:44.834Z,65.30
2018-09-05T01:55:16.685Z,65.20
2018-09-05T01:55:48.635Z,65.30
2018-09-05T01:56:20.612Z,65.10
2018-09-05T01:56:52.461Z,65.20
2018-09-05T01:57:24.313Z,65.10
2018-09-05T01:57:56.356Z,65.10
2018-09-05T01:58:28.236Z,65.00
2018-09-05T01:59:00.085Z,65.10
2018-09-05T01:59:32.045Z,65.10
2018-09-05T02:00:03.922Z,65.10
2018-09-05T02:00:35.866Z,65.10
2018-09-05T02:01:07.784Z,65.10
2018-09-05T02:01:39.696Z,64.90
2018-09-05T02:02:11.729Z,65.10
2018-09-05T02:02:43.605Z,65.00
2018-09-05T02:03:15.464Z,65.00
2018-09-05T02:03:47.494Z,65.00
2018-09-05T02:04:19.370Z,65.00
2018-09-05T02:04:51.373Z,65.00
2018-09-05T02:05:23.332Z,65.00
2018-09-05T02:05:55.296Z,64.90
2018-09-05T02:06:27.131Z,65.00
2018-09-05T02:06:59.053Z,64.90
2018-09-05T02:07:31.015Z,64.90
2018-09-05T02:08:02.849Z,65.10
2018-09-05T02:08:34.731Z,64.90
2018-09-05T02:09:06.754Z,65.10
2018-09-05T02:09:38.596Z,64.90
2018-09-05T02:10:10.682Z,64.80
2018-09-05T02:10:42.605Z,64.90
2018-09-05T02:11:14.470Z,64.80
2018-09-05T02:11:46.308Z,64.80
2018-09-05T02:12:18.263Z,64.80
2018-09-05T02:12:50.142Z,64.80
2018-09-05T02:13:22.102Z,64.80
2018-09-05T02:13:53.916Z,64.90
2018-09-05T02:14:25.783Z,64.90
2018-09-05T02:14:57.651Z,64.80
2018-09-05T02:15:29.460Z,64.80
2018-09-05T02:16:01.331Z,64.70
2018-09-05T02:16:33.180Z,65.50
2018-09-05T02:17:04.986Z,64.80
2018-09-05T02:17:36.855Z,64.70
2018-09-05T02:18:08.656Z,64.70
2018-09-05T02:18:40.505Z,64.50
2018-09-05T02:19:12.695Z,64.70
2018-09-05T02:19:44.546Z,64.60
2018-09-05T02:20:16.545Z,64.50
2018-09-05T02:20:48.355Z,64.40
2018-09-05T02:21:20.227Z,64.50
2018-09-05T02:21:52.066Z,64.50
2018-09-05T02:22:23.865Z,64.50
2018-09-05T02:22:55.917Z,64.60
2018-09-05T02:23:27.749Z,64.50
2018-09-05T02:23:59.772Z,64.50
2018-09-05T02:24:31.747Z,64.50
2018-09-05T02:25:03.704Z,64.60
2018-09-05T02:25:35.524Z,64.60
2018-09-05T02:26:07.343Z,64.70
2018-09-05T02:26:39.159Z,64.50
2018-09-05T02:27:11.079Z,64.60
2018-09-05T02:27:43.017Z,64.60
2018-09-05T02:28:14.835Z,64.60
2018-09-05T02:28:46.753Z,65.30
2018-09-05T02:29:18.652Z,64.60
2018-09-05T02:29:50.542Z,64.60
2018-09-05T02:30:22.351Z,64.60
2018-09-05T02:30:54.306Z,64.60
2018-09-05T02:31:26.183Z,64.60
2018-09-05T02:31:58.104Z,64.60
2018-09-05T02:32:29.904Z,64.60
2018-09-05T02:33:01.827Z,64.60
2018-09-05T02:33:33.685Z,64.60
2018-09-05T02:34:05.525Z,64.60
2018-09-05T02:34:37.383Z,64.60
2018-09-05T02:35:09.312Z,64.60
2018-09-05T02:35:41.171Z,64.50
2018-09-05T02:36:13.166Z,64.60
2018-09-05T02:36:45.093Z,65.30
2018-09-05T02:37:16.944Z,64.60
2018-09-05T02:37:48.736Z,64.60
2018-09-05T02:38:20.553Z,64.60
2018-09-05T02:38:52.492Z,64.60
2018-09-05T02:39:24.349Z,65.20
2018-09-05T02:39:56.182Z,64.60
2018-09-05T02:40:28.035Z,64.60
2018-09-05T02:41:00.073Z,64.50
2018-09-05T02:41:31.912Z,64.50
2018-09-05T02:42:03.709Z,64.50
2018-09-05T02:42:35.591Z,64.50
2018-09-05T02:43:07.476Z,64.50
2018-09-05T02:43:39.334Z,64.40
2018-09-05T02:44:11.128Z,64.40
2018-09-05T02:44:42.956Z,64.30
2018-09-05T02:45:14.819Z,64.30
2018-09-05T02:45:46.641Z,64.40
2018-09-05T02:46:18.602Z,64.40
2018-09-05T02:46:50.521Z,64.40
2018-09-05T02:47:22.397Z,64.40
2018-09-05T02:47:54.391Z,64.50
2018-09-05T02:48:26.369Z,64.50
2018-09-05T02:48:58.223Z,64.50
2018-09-05T02:49:30.063Z,64.50
2018-09-05T02:50:01.895Z,64.50
2018-09-05T02:50:33.725Z,64.40
2018-09-05T02:51:05.583Z,64.40
2018-09-05T02:51:37.580Z,64.40
2018-09-05T02:52:09.363Z,64.50
2018-09-05T02:52:41.177Z,64.40
2018-09-05T02:53:13.233Z,64.30
2018-09-05T02:53:45.239Z,64.40
2018-09-05T02:54:17.130Z,64.20
2018-09-05T02:54:49.188Z,64.30
2018-09-05T02:55:21.008Z,64.30
2018-09-05T02:55:52.996Z,64.30
2018-09-05T02:56:25.007Z,64.40
2018-09-05T02:56:56.803Z,64.40
2018-09-05T02:57:28.628Z,64.40
2018-09-05T02:58:00.467Z,64.30
2018-09-05T02:58:32.248Z,64.30
2018-09-05T02:59:04.044Z,64.30
2018-09-05T02:59:35.862Z,64.20
2018-09-05T03:00:07.810Z,64.20
2018-09-05T03:00:39.619Z,64.30
2018-09-05T03:01:11.471Z,64.30
2018-09-05T03:01:43.295Z,64.30
2018-09-05T03:02:15.130Z,64.30
2018-09-05T03:02:47.100Z,64.30
2018-09-05T03:03:18.971Z,64.30
2018-09-05T03:03:50.790Z,64.90
2018-09-05T03:04:22.628Z,64.20
2018-09-05T03:04:54.477Z,64.20
2018-09-05T03:05:26.608Z,64.20
2018-09-05T03:05:58.490Z,64.20
2018-09-05T03:06:30.328Z,64.60
2018-09-05T03:07:02.158Z,64.20
2018-09-05T03:07:33.968Z,64.20
2018-09-05T03:08:05.778Z,64.20
2018-09-05T03:08:37.578Z,64.20
2018-09-05T03:09:09.433Z,64.10
2018-09-05T03:09:41.428Z,64.20
2018-09-05T03:10:13.289Z,64.20
2018-09-05T03:10:45.198Z,64.30
2018-09-05T03:11:17.088Z,64.20
2018-09-05T03:11:49.100Z,63.50
2018-09-05T03:12:20.975Z,64.20
2018-09-05T03:12:52.760Z,64.20
2018-09-05T03:13:24.587Z,64.20
2018-09-05T03:13:56.404Z,64.20
2018-09-05T03:14:28.271Z,64.20
2018-09-05T03:15:00.098Z,64.20
2018-09-05T03:15:32.031Z,64.20
2018-09-05T03:16:03.998Z,64.10
2018-09-05T03:16:36.162Z,64.10
2018-09-05T03:17:07.967Z,64.00
2018-09-05T03:17:39.779Z,64.00
2018-09-05T03:18:11.849Z,64.70
2018-09-05T03:18:43.732Z,64.00
2018-09-05T03:19:15.609Z,64.00
2018-09-05T03:19:47.483Z,64.00
2018-09-05T03:20:19.381Z,64.00
2018-09-05T03:20:51.188Z,64.00
2018-09-05T03:21:23.017Z,64.00
2018-09-05T03:21:54.859Z,64.00
2018-09-05T03:22:26.837Z,64.00
2018-09-05T03:22:58.669Z,64.00
2018-09-05T03:23:30.496Z,64.10
2018-09-05T03:24:02.701Z,64.00
2018-09-05T03:24:34.528Z,63.90
2018-09-05T03:25:06.408Z,64.10
2018-09-05T03:25:38.210Z,64.00
2018-09-05T03:26:10.053Z,64.00
2018-09-05T03:26:42.005Z,64.00
2018-09-05T03:27:13.989Z,64.10
2018-09-05T03:27:45.867Z,64.10
2018-09-05T03:28:17.737Z,64.00
2018-09-05T03:28:49.619Z,64.10
2018-09-05T03:29:21.695Z,64.10
2018-09-05T03:29:53.556Z,64.00
2018-09-05T03:30:25.447Z,64.10
2018-09-05T03:30:57.360Z,64.10
2018-09-05T03:31:29.209Z,64.10
2018-09-05T03:32:01.061Z,64.00
2018-09-05T03:32:33.334Z,64.10
2018-09-05T03:33:05.618Z,64.10
2018-09-05T03:33:37.637Z,64.00
2018-09-05T03:34:09.451Z,64.00
2018-09-05T03:34:41.558Z,63.90
2018-09-05T03:35:13.375Z,63.90
2018-09-05T03:35:45.357Z,64.00
2018-09-05T03:36:17.325Z,64.00
2018-09-05T03:36:49.332Z,64.00
2018-09-05T03:37:21.158Z,64.00
2018-09-05T03:37:53.168Z,64.00
2018-09-05T03:38:24.963Z,63.90
2018-09-05T03:38:57.101Z,63.80
2018-09-05T03:39:28.882Z,63.90
2018-09-05T03:40:00.827Z,63.90
2018-09-05T03:40:32.631Z,63.90
2018-09-05T03:41:04.434Z,63.90
2018-09-05T03:41:36.229Z,63.90
2018-09-05T03:42:08.128Z,63.80
2018-09-05T03:42:39.968Z,63.80
2018-09-05T03:43:11.968Z,63.80
2018-09-05T03:43:43.743Z,63.90
2018-09-05T03:44:15.848Z,63.80
2018-09-05T03:44:47.684Z,63.80
2018-09-05T03:45:19.510Z,63.70
2018-09-05T03:45:51.467Z,63.80
2018-09-05T03:46:23.560Z,63.80
2018-09-05T03:46:55.414Z,63.80
2018-09-05T03:47:27.208Z,63.70
2018-09-05T03:47:59.026Z,63.80
2018-09-05T03:48:30.945Z,63.80
2018-09-05T03:49:03.004Z,63.80
2018-09-05T03:49:35.069Z,63.70
2018-09-05T03:50:07.125Z,63.70
2018-09-05T03:50:39.276Z,63.70
2018-09-05T03:51:11.065Z,63.60
2018-09-05T03:51:42.869Z,63.50
2018-09-05T03:52:14.693Z,63.60
2018-09-05T03:52:46.575Z,63.50
2018-09-05T03:53:18.516Z,63.60
2018-09-05T03:53:50.349Z,63.60
2018-09-05T03:54:22.218Z,63.70
2018-09-05T03:54:54.034Z,63.70
2018-09-05T03:55:25.877Z,63.70
2018-09-05T03:55:57.706Z,63.70
2018-09-05T03:56:29.508Z,63.70
2018-09-05T03:57:01.356Z,63.70
2018-09-05T03:57:33.151Z,63.60
2018-09-05T03:58:05.005Z,63.60
2018-09-05T03:58:36.994Z,63.60
2018-09-05T03:59:08.844Z,63.60
2018-09-05T03:59:40.925Z,63.50
2018-09-05T04:00:12.708Z,63.70
2018-09-05T04:00:44.505Z,63.70
2018-09-05T04:01:16.536Z,63.70
2018-09-05T04:01:48.385Z,63.10
2018-09-05T04:02:20.207Z,63.70
2018-09-05T04:02:52.051Z,63.60
2018-09-05T04:03:24.013Z,63.70
2018-09-05T04:03:55.968Z,63.60
2018-09-05T04:04:27.821Z,63.50
2018-09-05T04:04:59.917Z,63.50
2018-09-05T04:05:31.916Z,63.60
2018-09-05T04:06:03.801Z,63.70
2018-09-05T04:06:35.643Z,63.70
2018-09-05T04:07:07.585Z,63.60
2018-09-05T04:07:39.459Z,63.60
2018-09-05T04:08:11.545Z,63.60
2018-09-05T04:08:43.535Z,63.60
2018-09-05T04:09:15.425Z,64.20
2018-09-05T04:09:47.249Z,63.00
2018-09-05T04:10:19.105Z,63.50
2018-09-05T04:10:51.016Z,63.50
2018-09-05T04:11:22.968Z,63.50
2018-09-05T04:11:54.951Z,63.50
2018-09-05T04:12:26.915Z,63.50
2018-09-05T04:12:58.759Z,63.40
2018-09-05T04:13:30.575Z,63.40
2018-09-05T04:14:02.576Z,63.40
2018-09-05T04:14:34.573Z,63.40
2018-09-05T04:15:06.516Z,63.40
2018-09-05T04:15:38.494Z,63.40
2018-09-05T04:16:10.306Z,63.40
2018-09-05T04:16:42.156Z,63.30
2018-09-05T04:17:14.046Z,63.30
2018-09-05T04:17:45.915Z,63.40
2018-09-05T04:18:17.731Z,63.30
2018-09-05T04:18:49.517Z,63.40
2018-09-05T04:19:21.329Z,63.40
2018-09-05T04:19:53.478Z,63.40
2018-09-05T04:20:25.375Z,63.40
2018-09-05T04:20:57.212Z,63.40
2018-09-05T04:21:29.098Z,63.40
2018-09-05T04:22:01.178Z,63.30
2018-09-05T04:22:33.227Z,63.30
2018-09-05T04:23:05.094Z,63.30
2018-09-05T04:23:36.954Z,63.20
2018-09-05T04:24:08.827Z,63.20
2018-09-05T04:24:40.659Z,63.40
2018-09-05T04:25:12.486Z,63.30
2018-09-05T04:25:44.473Z,63.30
2018-09-05T04:26:16.376Z,63.30
2018-09-05T04:26:48.281Z,64.00
2018-09-05T04:27:20.139Z,63.30
2018-09-05T04:27:52.066Z,63.40
2018-09-05T04:28:24.048Z,63.20
2018-09-05T04:28:55.847Z,63.30
2018-09-05T04:29:27.900Z,63.20
2018-09-05T04:30:00.001Z,63.20
2018-09-05T04:30:31.966Z,63.20
2018-09-05T04:31:03.818Z,63.40
2018-09-05T04:31:35.654Z,63.30
2018-09-05T04:32:07.476Z,63.30
2018-09-05T04:32:39.310Z,63.30
2018-09-05T04:33:11.090Z,63.30
2018-09-05T04:33:43.201Z,63.30
2018-09-05T04:34:14.999Z,63.20
2018-09-05T04:34:46.823Z,63.20
2018-09-05T04:35:18.717Z,63.10
2018-09-05T04:35:50.574Z,63.10
2018-09-05T04:36:22.389Z,63.10
2018-09-05T04:36:54.207Z,63.10
2018-09-05T04:37:26.021Z,63.10
2018-09-05T04:37:58.001Z,63.00
2018-09-05T04:38:29.913Z,63.00
2018-09-05T04:39:01.705Z,63.00
2018-09-05T04:39:33.642Z,63.00
2018-09-05T04:40:05.505Z,62.90
2018-09-05T04:40:37.443Z,63.00
2018-09-05T04:41:09.315Z,63.00
2018-09-05T04:41:41.146Z,63.00
2018-09-05T04:42:12.967Z,63.00
2018-09-05T04:42:45.168Z,62.90
2018-09-05T04:43:17.027Z,63.20
2018-09-05T04:43:48.919Z,63.00
2018-09-05T04:44:20.835Z,63.00
2018-09-05T04:44:53.039Z,63.10
2018-09-05T04:45:24.878Z,63.20
2018-09-05T04:45:56.946Z,63.00
2018-09-05T04:46:28.853Z,63.00
2018-09-05T04:47:00.668Z,63.00
2018-09-05T04:47:32.583Z,63.80
2018-09-05T04:48:04.366Z,63.10
2018-09-05T04:48:36.217Z,63.10
2018-09-05T04:49:08.098Z,63.00
2018-09-05T04:49:40.188Z,63.00
2018-09-05T04:50:12.167Z,63.00
2018-09-05T04:50:44.048Z,63.00
2018-09-05T04:51:15.821Z,63.10
2018-09-05T04:51:47.987Z,63.10
2018-09-05T04:52:19.802Z,63.00
2018-09-05T04:52:51.755Z,63.00
2018-09-05T04:53:23.600Z,63.10
2018-09-05T04:53:55.474Z,63.00
2018-09-05T04:54:27.349Z,63.00
2018-09-05T04:54:59.258Z,63.00
2018-09-05T04:55:31.038Z,63.10
2018-09-05T04:56:02.866Z,62.90
2018-09-05T04:56:34.732Z,62.90
2018-09-05T04:57:06.758Z,62.90
2018-09-05T04:57:38.648Z,62.80
2018-09-05T04:58:10.540Z,62.90
2018-09-05T04:58:42.340Z,62.90
2018-09-05T04:59:14.218Z,62.80
2018-09-05T04:59:46.391Z,62.90
2018-09-05T05:00:18.247Z,63.80
2018-09-05T05:00:50.112Z,62.90
2018-09-05T05:01:21.918Z,62.90
2018-09-05T05:01:54.018Z,62.80
2018-09-05T05:02:25.973Z,62.90
2018-09-05T05:02:57.896Z,63.00
2018-09-05T05:03:29.776Z,62.80
2018-09-05T05:04:01.582Z,62.80
2018-09-05T05:04:33.425Z,62.80
2018-09-05T05:05:05.407Z,62.90
2018-09-05T05:05:37.255Z,62.80
2018-09-05T05:06:09.328Z,62.80
2018-09-05T05:06:41.111Z,62.80
2018-09-05T05:07:12.896Z,62.80
2018-09-05T05:07:44.879Z,62.80
2018-09-05T05:08:16.837Z,62.90
2018-09-05T05:08:48.686Z,62.90
2018-09-05T05:09:20.556Z,62.80
2018-09-05T05:09:52.521Z,62.80
2018-09-05T05:10:24.512Z,62.90
2018-09-05T05:10:56.479Z,62.80
2018-09-05T05:11:28.459Z,62.90
2018-09-05T05:12:00.506Z,62.80
2018-09-05T05:12:32.502Z,62.90
2018-09-05T05:13:04.523Z,62.90
2018-09-05T05:13:36.330Z,62.80
2018-09-05T05:14:08.136Z,62.80
2018-09-05T05:14:40.107Z,62.70
2018-09-05T05:15:12.010Z,62.70
2018-09-05T05:15:43.886Z,62.80
2018-09-05T05:16:15.685Z,62.80
2018-09-05T05:16:47.606Z,62.80
2018-09-05T05:17:19.395Z,62.80
2018-09-05T05:17:51.241Z,63.50
2018-09-05T05:18:23.098Z,62.70
2018-09-05T05:18:54.959Z,62.70
2018-09-05T05:19:26.763Z,62.70
2018-09-05T05:19:58.828Z,62.70
2018-09-05T05:20:30.804Z,62.70
2018-09-05T05:21:02.760Z,62.70
2018-09-05T05:21:34.656Z,62.70
2018-09-05T05:22:06.717Z,62.70
2018-09-05T05:22:38.646Z,62.70
2018-09-05T05:23:10.585Z,63.10
2018-09-05T05:23:42.516Z,62.70
2018-09-05T05:24:14.475Z,62.80
2018-09-05T05:24:46.429Z,63.40
2018-09-05T05:25:18.374Z,62.80
2018-09-05T05:25:50.321Z,62.80
2018-09-05T05:26:22.279Z,62.70
2018-09-05T05:26:54.151Z,62.70
2018-09-05T05:27:25.969Z,62.70
2018-09-05T05:27:57.764Z,62.70
2018-09-05T05:28:29.592Z,63.10
2018-09-05T05:29:01.470Z,62.60
2018-09-05T05:29:33.334Z,62.70
2018-09-05T05:30:05.227Z,62.60
2018-09-05T05:30:37.130Z,62.70
2018-09-05T05:31:08.930Z,62.70
2018-09-05T05:31:40.777Z,62.60
2018-09-05T05:32:12.610Z,63.00
2018-09-05T05:33:23.541Z,63.40
2018-09-05T05:33:55.344Z,63.90
2018-09-05T05:34:27.175Z,64.80
2018-09-05T05:34:58.991Z,63.80
2018-09-05T05:35:30.770Z,64.10
2018-09-05T05:36:02.569Z,64.30
2018-09-05T05:36:34.359Z,64.70
2018-09-05T05:37:06.326Z,65.00
2018-09-05T05:37:38.267Z,64.90
2018-09-05T05:38:10.077Z,65.20
2018-09-05T05:38:41.940Z,65.30
2018-09-05T05:39:13.739Z,65.40
2018-09-05T05:39:45.582Z,65.50
2018-09-05T05:40:17.658Z,65.00
2018-09-05T05:40:49.661Z,65.40
2018-09-05T05:41:21.454Z,65.50
2018-09-05T05:41:53.265Z,65.60
2018-09-05T05:42:25.092Z,65.50
2018-09-05T05:42:57.051Z,65.70
2018-09-05T05:43:28.863Z,65.80
2018-09-05T05:44:00.688Z,65.50
2018-09-05T05:44:32.608Z,65.80
2018-09-05T05:45:04.523Z,65.50
2018-09-05T05:45:36.452Z,65.90
2018-09-05T05:46:08.414Z,65.80
2018-09-05T05:46:40.326Z,66.30
2018-09-05T05:47:12.333Z,66.00
2018-09-05T05:47:44.117Z,66.20
2018-09-05T05:48:15.946Z,66.20
2018-09-05T05:48:47.753Z,66.10
2018-09-05T05:49:19.625Z,66.20
2018-09-05T05:49:51.673Z,66.10
2018-09-05T05:50:23.455Z,66.10
2018-09-05T05:50:55.356Z,65.90
2018-09-05T05:51:27.165Z,65.90
2018-09-05T05:51:58.973Z,65.90
2018-09-05T05:52:30.803Z,66.30
2018-09-05T05:53:02.728Z,66.10
2018-09-05T05:53:34.552Z,66.00
2018-09-05T05:54:06.645Z,66.50
2018-09-05T05:54:38.465Z,66.30
2018-09-05T05:55:10.383Z,66.20
2018-09-05T05:55:42.422Z,66.10
2018-09-05T05:56:14.364Z,65.50
2018-09-05T05:56:46.612Z,66.30
2018-09-05T05:57:18.867Z,65.90
2018-09-05T05:57:50.716Z,65.80
2018-09-05T05:58:22.661Z,65.70
2018-09-05T05:58:54.500Z,65.70
2018-09-05T05:59:26.582Z,65.70
2018-09-05T05:59:58.514Z,65.70
2018-09-05T06:00:30.394Z,65.10
2018-09-05T06:01:02.266Z,65.40
2018-09-05T06:01:34.192Z,65.00
2018-09-05T06:02:06.079Z,65.70
2018-09-05T06:02:37.946Z,65.40
2018-09-05T06:03:09.776Z,65.30
2018-09-05T06:03:41.583Z,65.50
2018-09-05T06:04:13.446Z,65.30
2018-09-05T06:04:45.556Z,65.60
2018-09-05T06:05:17.515Z,65.50
2018-09-05T06:05:49.639Z,65.40
2018-09-05T06:06:21.780Z,65.50
2018-09-05T06:06:53.764Z,65.20
2018-09-05T06:07:25.644Z,65.40
2018-09-05T06:07:57.430Z,65.50
2018-09-05T06:08:29.217Z,65.30
2018-09-05T06:09:01.215Z,65.50
2018-09-05T06:09:33.066Z,65.30
2018-09-05T06:10:04.843Z,65.20
2018-09-05T06:10:36.898Z,65.30
2018-09-05T06:11:08.805Z,65.30
2018-09-05T06:11:41.068Z,65.30
2018-09-05T06:12:13.218Z,65.50
2018-09-05T06:12:45.137Z,65.40
2018-09-05T06:13:17.037Z,65.10
2018-09-05T06:13:48.976Z,65.00
2018-09-05T06:14:20.938Z,65.20
2018-09-05T06:14:52.820Z,65.30
2018-09-05T06:15:24.729Z,65.40
2018-09-05T06:15:56.745Z,65.10
2018-09-05T06:16:28.630Z,65.20
2018-09-05T06:17:00.416Z,65.30
2018-09-05T06:17:32.356Z,65.00
2018-09-05T06:18:04.396Z,65.80
2018-09-05T06:18:36.705Z,65.10
2018-09-05T06:19:08.548Z,65.20
2018-09-05T06:19:40.367Z,65.30
2018-09-05T06:20:12.225Z,64.90
2018-09-05T06:20:44.046Z,65.30
2018-09-05T06:21:16.074Z,65.30
2018-09-05T06:21:47.978Z,65.00
2018-09-05T06:22:19.838Z,64.90
2018-09-05T06:22:51.727Z,65.00
2018-09-05T06:23:23.550Z,65.20
2018-09-05T06:23:55.425Z,65.10
2018-09-05T06:24:27.423Z,65.10
2018-09-05T06:24:59.276Z,65.00
2018-09-05T06:25:31.148Z,64.90
2018-09-05T06:26:03.042Z,64.50
2018-09-05T06:26:35.067Z,65.00
2018-09-05T06:27:06.917Z,65.20
2018-09-05T06:27:38.805Z,64.80
2018-09-05T06:28:10.765Z,65.00
2018-09-05T06:28:42.559Z,65.00
2018-09-05T06:29:14.564Z,65.10
2018-09-05T06:29:46.419Z,65.10
2018-09-05T06:30:18.409Z,65.20
2018-09-05T06:30:50.446Z,64.90
2018-09-05T06:31:22.465Z,65.10
2018-09-05T06:31:54.396Z,65.20
2018-09-05T06:32:26.197Z,65.30
2018-09-05T06:32:58.018Z,65.30
2018-09-05T06:33:29.822Z,65.20
2018-09-05T06:34:01.780Z,65.10
2018-09-05T06:34:33.656Z,65.10
2018-09-05T06:35:05.703Z,65.00
2018-09-05T06:35:37.653Z,65.30
2018-09-05T06:36:09.713Z,65.20
2018-09-05T06:36:41.761Z,65.10
2018-09-05T06:37:13.748Z,65.30
2018-09-05T06:37:45.603Z,65.20
2018-09-05T06:38:17.770Z,65.90
2018-09-05T06:38:49.658Z,65.40
2018-09-05T06:39:21.787Z,65.40
2018-09-05T06:39:53.590Z,65.30
2018-09-05T06:40:25.438Z,65.50
2018-09-05T06:40:57.279Z,65.40
2018-09-05T06:41:29.178Z,65.20
2018-09-05T06:42:01.127Z,65.00
2018-09-05T06:42:32.910Z,65.30
2018-09-05T06:43:04.709Z,65.40
2018-09-05T06:43:36.553Z,65.30
2018-09-05T06:44:08.380Z,65.30
2018-09-05T06:44:40.247Z,65.40
2018-09-05T06:45:12.104Z,65.40
2018-09-05T06:45:44.142Z,65.40
2018-09-05T06:46:16.071Z,65.40
2018-09-05T06:46:47.904Z,65.30
2018-09-05T06:47:19.720Z,65.30
2018-09-05T06:47:51.547Z,65.40
2018-09-05T06:48:23.414Z,64.70
2018-09-05T06:48:55.424Z,64.90
2018-09-05T06:49:27.238Z,64.80
2018-09-05T06:49:59.118Z,65.00
2018-09-05T06:50:31.095Z,65.00
2018-09-05T06:51:02.880Z,65.00
2018-09-05T06:51:34.789Z,64.70